Latest Weather Observations for Temora

IDN60801

Issued at 7:35 pm EDT Tuesday 21 October 2014 (issued every 30 minutes, with the page automatically refreshed every 10 minutes)

About weather observations | Map of weather stations | Latest weather observations for NSW | Other Formats
Station Details ID: 073151 Name: TEMORA AIRPORT Lat: -34.43 Lon: 147.51 Height: 280.5 m
Data from the previous 72 hours. | See also: Recent months at Temora
Date/Time
EDT
Temp
°C
App
Temp
°C
Dew
Point
Rel
Hum
%
Delta-T
°C
Wind Press
QNH
hPa
Press
MSL
hPa
Rain
since 9 am
mm
Dir
 
Spd
km/h
Gust
km/h
Spd
kts
Gust
kts
21/07:30pm 20.2 15.9 10.9 55 5.1 E 24 37 13 20 1024.8 1024.5 0.0
21/07:00pm 21.9 18.1 11.3 51 5.9 ESE 22 30 12 16 1024.4 1024.0 0.0
21/06:30pm 23.7 19.1 11.1 45 7.1 ESE 26 37 14 20 1024.1 1023.7 0.0
21/06:00pm 25.9 21.9 10.5 38 8.7 E 22 30 12 16 1023.9 1023.5 0.0
21/05:30pm 26.9 23.3 10.6 36 9.3 E 20 30 11 16 1023.7 1023.3 0.0
21/05:00pm 27.1 23.5 9.9 34 9.7 E 19 26 10 14 1023.8 1023.4 0.0
21/04:30pm 27.7 24.4 9.5 32 10.2 ENE 17 33 9 18 1024.0 1023.6 0.0
21/04:00pm 27.2 23.9 9.5 33 9.9 E 17 24 9 13 1024.1 1023.7 0.0
21/03:30pm 26.6 23.1 8.6 32 9.9 NE 17 30 9 16 1024.6 1024.3 0.0
21/03:00pm 26.6 22.6 9.0 33 9.7 NE 20 32 11 17 1025.1 1024.8 0.0
21/02:30pm 26.7 22.4 9.5 34 9.6 NNE 22 28 12 15 1025.4 1025.1 0.0
21/02:00pm 25.7 22.1 9.9 37 8.8 E 19 28 10 15 1026.1 1025.7 0.0
21/01:30pm 25.3 21.1 9.6 37 8.7 NE 22 39 12 21 1026.7 1026.3 0.0
21/01:00pm 24.1 19.5 9.7 40 7.9 ENE 24 35 13 19 1027.0 1026.6 0.0
21/12:30pm 23.6 19.0 9.6 41 7.7 ENE 24 35 13 19 1027.4 1027.0 0.0
21/12:00pm 23.3 18.5 10.4 44 7.2 ENE 26 37 14 20 1027.8 1027.5 0.0
21/11:30am 22.1 16.4 9.9 46 6.7 E 30 41 16 22 1028.2 1027.9 0.0
21/11:00am 21.0 15.6 9.6 48 6.2 E 28 39 15 21 1028.5 1028.2 0.0
21/10:30am 19.2 13.7 9.1 52 5.4 E 28 39 15 21 1028.9 1028.6 0.0
21/10:00am 18.3 12.0 8.8 54 5.0 E 32 43 17 23 1029.1 1028.8 0.0
21/09:30am 17.4 11.8 8.8 57 4.5 E 28 39 15 21 1029.2 1028.9 0.0
21/09:00am 16.3 10.6 8.5 60 4.0 ENE 28 43 15 23 1029.2 1028.9 0.0
21/08:30am 15.3 9.3 8.5 64 3.5 E 30 46 16 25 1029.0 1028.7 0.0
21/08:00am 14.2 7.7 8.2 67 3.0 E 32 43 17 23 1028.6 1028.3 0.0
21/07:30am 13.4 8.5 8.3 71 2.6 E 24 35 13 19 1028.2 1027.9 0.0
21/07:00am 12.6 8.4 8.3 75 2.1 E 20 32 11 17 1028.0 1027.7 0.0
21/06:30am 12.2 7.6 8.1 76 2.0 E 22 33 12 18 1027.7 1027.4 0.0
21/06:00am 12.2 7.6 8.1 76 2.0 E 22 32 12 17 1027.4 1027.0 0.0
21/05:30am 12.3 7.3 8.0 75 2.1 E 24 33 13 18 1027.2 1026.8 0.0
21/05:00am 12.4 7.0 8.1 75 2.1 E 26 37 14 20 1027.1 1026.7 0.0
21/04:30am 12.4 7.4 8.1 75 2.1 E 24 35 13 19 1026.9 1026.5 0.0
21/04:00am 12.3 6.9 8.0 75 2.1 E 26 37 14 20 1026.9 1026.5 0.0
21/03:30am 12.5 7.1 8.0 74 2.2 E 26 37 14 20 1027.1 1026.7 0.0
21/03:00am 12.4 7.4 7.9 74 2.2 E 24 37 13 20 1027.1 1026.7 0.0
21/02:30am 12.5 6.7 7.8 73 2.3 E 28 39 15 21 1027.1 1026.7 0.0
21/02:00am 12.6 6.7 7.7 72 2.4 E 28 39 15 21 1027.3 1026.9 0.0
21/01:30am 12.6 7.5 7.7 72 2.4 E 24 35 13 19 1027.4 1027.0 0.0
21/01:00am 12.8 6.6 7.9 72 2.4 E 30 46 16 25 1027.5 1027.1 0.0
21/12:51am 12.9 7.1 7.8 71 2.5 E 28 46 15 25 1027.5 1027.1 0.0
21/12:30am 12.9 7.5 7.8 71 2.5 E 26 37 14 20 1027.6 1027.2 0.0
21/12:00am 13.0 7.1 7.7 70 2.6 E 28 41 15 22 1027.6 1027.2 0.0
 
Date/Time
EDT
Temp
°C
App
Temp
°C
Dew
Point
Rel
Hum
%
Delta-T
°C
Wind Press
QNH
hPa
Press
MSL
hPa
Rain
since 9 am
mm
Dir
 
Spd
km/h
Gust
km/h
Spd
kts
Gust
kts
20/11:30pm 13.3 7.0 7.5 68 2.9 E 30 50 16 27 1027.7 1027.4 0.0
20/11:25pm 13.4 7.5 7.6 68 2.9 E 28 50 15 27 1027.7 1027.4 0.0
20/11:00pm 13.5 8.0 7.7 68 2.9 E 26 41 14 22 1027.5 1027.1 0.0
20/10:30pm 13.8 8.5 8.4 70 2.7 E 26 41 14 22 1027.3 1026.9 0.0
20/10:00pm 14.3 8.7 8.7 69 2.9 E 28 43 15 23 1027.0 1026.6 0.0
20/09:50pm 14.4 8.8 8.8 69 2.9 E 28 46 15 25 1027.0 1026.6 0.0
20/09:30pm 14.7 9.5 8.9 68 3.0 E 26 44 14 24 1026.9 1026.5 0.0
20/09:00pm 15.5 10.4 9.2 66 3.3 E 26 39 14 21 1026.4 1026.0 0.0
20/08:30pm 16.5 11.9 9.7 64 3.6 E 24 41 13 22 1025.8 1025.5 0.0
20/08:00pm 17.8 12.5 9.9 60 4.2 E 28 39 15 21 1025.2 1024.9 0.0
20/07:30pm 19.2 14.0 10.2 56 4.9 E 28 44 15 24 1024.6 1024.3 0.0
20/07:00pm 20.6 15.8 10.4 52 5.6 E 26 35 14 19 1024.0 1023.6 0.0
20/06:30pm 22.5 17.8 10.6 47 6.6 E 26 39 14 21 1023.6 1023.2 0.0
20/06:00pm 23.9 18.9 10.9 44 7.3 E 28 39 15 21 1023.3 1022.9 0.0
20/05:30pm 25.5 20.1 10.9 40 8.3 E 30 39 16 21 1023.1 1022.7 0.0
20/05:00pm 27.0 21.6 12.3 40 8.6 E 32 41 17 22 1022.6 1022.2 0.0
20/04:30pm 28.3 23.0 11.4 35 9.8 E 30 41 16 22 1022.1 1021.8 0.0
20/04:00pm 29.6 25.0 11.2 32 10.7 E 26 39 14 21 1021.9 1021.6 0.0
20/03:30pm 30.4 27.9 9.8 28 11.8 SE 13 20 7 11 1022.1 1021.8 0.0
20/03:00pm 32.5 27.1 -1.7 11 16.3 S 17 24 9 13 1022.3 1021.9 0.0
20/02:30pm 33.4 28.4 -1.0 11 16.7 SW 15 26 8 14 1022.6 1022.2 0.0
20/02:00pm 32.7 28.4 -1.6 11 16.4 S 11 15 6 8 1023.0 1022.6 0.0
20/01:30pm 32.9 28.4 -0.2 12 16.3 SW 13 20 7 11 1023.3 1022.9 0.0
20/01:00pm 31.7 27.9 1.9 15 15.0 E 11 13 6 7 1023.7 1023.3 0.0
20/12:30pm 31.0 27.9 1.4 15 14.8 SSW 7 15 4 8 1024.1 1023.7 0.0
20/12:00pm 30.1 27.3 3.2 18 13.7 NNW 7 17 4 9 1024.4 1024.0 0.0
20/11:30am 29.8 26.8 2.1 17 13.9 NW 7 19 4 10 1024.7 1024.4 0.0
20/11:00am 28.7 26.1 4.2 21 12.6 WNW 7 17 4 9 1025.0 1024.7 0.0
20/10:30am 27.0 25.5 6.9 28 10.8 ENE 4 9 2 5 1025.1 1024.8 0.0
20/10:00am 25.2 23.9 7.8 33 9.3 NNE 4 13 2 7 1025.2 1024.9 0.0
20/09:30am 22.8 20.5 7.4 37 8.1 N 9 13 5 7 1025.1 1024.8 0.0
20/09:00am 20.4 18.2 7.7 44 6.6 ENE 9 13 5 7 1025.1 1024.8 0.0
20/08:30am 18.0 17.6 9.6 58 4.5 NE 2 11 1 6 1024.8 1024.5 0.0
20/08:00am 13.5 12.8 9.9 79 1.9 SW 4 7 2 4 1024.7 1024.4 0.0
20/07:30am 9.7 8.0 7.6 87 1.0 S 6 7 3 4 1024.2 1023.8 0.0
20/07:00am 7.1 4.4 5.6 90 0.7 S 9 11 5 6 1023.7 1023.3 0.0
20/06:30am 6.3 5.1 4.6 89 0.7 CALM 0 0 0 0 1023.2 1022.8 0.0
20/06:00am 6.7 5.6 5.3 91 0.6 CALM 0 0 0 0 1023.0 1022.6 0.0
20/05:30am 6.3 3.7 4.3 87 0.9 S 7 7 4 4 1022.8 1022.4 0.0
20/05:00am 7.5 5.3 5.5 87 0.9 S 6 7 3 4 1022.4 1022.0 0.0
20/04:30am 7.2 4.7 4.9 85 1.0 S 7 7 4 4 1022.1 1021.8 0.0
20/04:00am 8.9 7.8 6.7 86 1.0 S 2 7 1 4 1022.1 1021.8 0.0
20/03:30am 8.6 7.8 6.4 86 1.0 CALM 0 0 0 0 1022.4 1022.0 0.0
20/03:00am 8.5 7.3 6.3 86 1.0 S 2 6 1 3 1022.7 1022.3 0.0
20/02:30am 8.9 6.9 6.3 84 1.2 SSW 6 7 3 4 1022.7 1022.3 0.0
20/02:00am 8.8 7.5 5.9 82 1.3 S 2 6 1 3 1023.1 1022.7 0.0
20/01:30am 9.8 8.3 6.7 81 1.5 S 4 7 2 4 1023.4 1023.0 0.0
20/01:00am 10.3 9.7 7.2 81 1.5 CALM 0 0 0 0 1023.7 1023.3 0.0
20/12:30am 10.5 8.7 7.0 79 1.7 S 6 7 3 4 1023.8 1023.4 0.0
20/12:00am 10.7 9.7 7.2 79 1.7 SSW 2 6 1 3 1023.9 1023.5 0.0
 
Date/Time
EDT
Temp
°C
App
Temp
°C
Dew
Point
Rel
Hum
%
Delta-T
°C
Wind Press
QNH
hPa
Press
MSL
hPa
Rain
since 9 am
mm
Dir
 
Spd
km/h
Gust
km/h
Spd
kts
Gust
kts
19/11:30pm 11.7 11.1 7.6 76 2.0 CALM 0 0 0 0 1023.8 1023.4 0.0
19/11:00pm 13.5 12.0 8.6 72 2.5 ENE 6 9 3 5 1024.1 1023.7 0.0
19/10:30pm 12.1 9.8 7.6 74 2.2 S 9 11 5 6 1024.0 1023.6 0.0
19/10:00pm 13.3 12.6 7.1 66 3.0 CALM 0 0 0 0 1023.9 1023.5 0.0
19/09:30pm 15.4 15.0 8.2 62 3.7 CALM 0 0 0 0 1023.8 1023.4 0.0
19/09:00pm 16.6 16.1 7.8 56 4.5 CALM 0 0 0 0 1023.6 1023.2 0.0
19/08:30pm 19.7 17.6 5.7 40 7.0 ENE 6 7 3 4 1023.1 1022.7 0.0
19/08:00pm 21.1 19.0 5.9 37 7.7 NNE 6 7 3 4 1022.9 1022.5 0.0
19/07:30pm 23.6 21.1 4.5 29 9.6 N 7 9 4 5 1022.7 1022.3 0.0
19/07:00pm 26.1 23.2 4.6 25 11.0 N 9 9 5 5 1022.4 1022.0 0.0
19/06:30pm 27.8 24.9 2.8 20 12.5 N 7 11 4 6 1022.0 1021.7 0.0
19/06:00pm 29.1 26.2 2.4 18 13.3 WNW 7 11 4 6 1021.9 1021.6 0.0
19/05:30pm 29.2 25.9 2.5 18 13.4 N 9 13 5 7 1022.1 1021.8 0.0
19/05:00pm 29.3 26.3 1.7 17 13.6 N 7 11 4 6 1022.3 1021.9 0.0
19/04:30pm 29.1 25.3 1.6 17 13.6 N 11 17 6 9 1022.5 1022.1 0.0
19/04:00pm 29.7 26.0 2.1 17 13.8 NNW 11 17 6 9 1022.6 1022.2 0.0
19/03:30pm 29.1 24.9 1.6 17 13.6 N 13 19 7 10 1022.9 1022.5 0.0
19/03:00pm 29.0 25.4 3.1 19 13.1 N 11 17 6 9 1023.4 1023.0 0.0
19/02:30pm 28.7 25.0 2.1 18 13.2 NW 11 20 6 11 1023.8 1023.4 0.0
19/02:00pm 27.7 23.4 1.2 18 12.8 N 13 24 7 13 1024.3 1023.9 0.0
19/01:30pm 27.4 23.2 1.8 19 12.6 N 13 20 7 11 1024.8 1024.5 0.0
19/01:00pm 26.6 22.9 2.5 21 11.8 NNE 11 19 6 10 1025.3 1025.0 0.0
19/12:30pm 26.3 23.1 2.9 22 11.6 N 9 20 5 11 1025.5 1025.2 0.0
19/12:00pm 26.1 22.4 4.6 25 10.9 NNW 13 20 7 11 1025.9 1025.6 0.0
19/11:30am 24.9 21.3 5.2 28 10.1 N 13 20 7 11 1026.3 1025.9 0.0
19/11:00am 24.3 20.9 6.1 31 9.4 N 13 20 7 11 1026.6 1026.2 0.0
19/10:30am 23.0 19.0 6.7 35 8.5 N 17 22 9 12 1027.0 1026.6 0.0
19/10:00am 21.7 18.0 6.4 37 7.8 N 15 20 8 11 1027.1 1026.7 0.0
19/09:30am 19.6 16.4 7.0 44 6.5 NNE 13 17 7 9 1027.3 1026.9 0.0
19/09:00am 17.7 15.4 7.4 51 5.2 NE 9 15 5 8 1027.4 1027.0 0.0
19/08:30am 15.7 13.8 7.7 59 4.1 ENE 7 9 4 5 1027.6 1027.2 0.0
19/08:00am 11.3 10.5 8.0 80 1.6 N 2 6 1 3 1027.5 1027.1 0.0
19/07:30am 8.1 6.9 6.6 90 0.7 S 2 7 1 4 1027.1 1026.7 0.0
19/07:00am 5.5 3.0 4.6 94 0.4 S 7 9 4 5 1026.8 1026.4 0.0
19/06:30am 4.0 1.4 3.0 93 0.4 S 6 9 3 5 1026.2 1025.8 0.0
19/06:00am 4.1 2.6 2.8 91 0.5 CALM 0 0 0 0 1025.6 1025.3 0.0
19/05:30am 3.9 2.3 2.6 91 0.5 CALM 0 0 0 0 1025.3 1025.0 0.0
19/05:00am 4.4 2.9 3.2 92 0.5 CALM 0 0 0 0 1025.2 1024.9 0.0
19/04:30am 4.4 1.6 2.9 90 0.6 S 7 9 4 5 1025.0 1024.7 0.0
19/04:00am 6.0 3.0 4.2 88 0.8 S 9 11 5 6 1025.2 1024.9 0.0
19/03:30am 6.0 4.8 4.6 91 0.6 CALM 0 0 0 0 1025.5 1025.2 0.0
19/03:00am 5.8 4.2 4.3 90 0.6 SSW 2 7 1 4 1025.5 1025.2 0.0
19/02:30am 5.7 3.2 3.7 87 0.9 S 6 7 3 4 1025.6 1025.3 0.0
19/02:00am 6.7 3.3 4.2 84 1.1 S 11 11 6 6 1026.2 1025.8 0.0
19/01:30am 7.1 4.2 4.9 86 1.0 S 9 11 5 6 1026.3 1025.9 0.0
19/01:00am 8.0 5.7 5.5 84 1.1 S 7 9 4 5 1026.4 1026.0 0.0
19/12:30am 7.8 6.6 4.7 81 1.4 CALM 0 7 0 4 1026.7 1026.3 0.0
19/12:00am 8.0 6.9 5.3 83 1.2 CALM 0 4 0 2 1026.9 1026.5 0.0
 
Date/Time
EDT
Temp
°C
App
Temp
°C
Dew
Point
Rel
Hum
%
Delta-T
°C
Wind Press
QNH
hPa
Press
MSL
hPa
Rain
since 9 am
mm
Dir
 
Spd
km/h
Gust
km/h
Spd
kts
Gust
kts
18/11:30pm 8.6 5.9 5.5 81 1.4 S 9 9 5 5 1026.7 1026.3 0.0
18/11:00pm 8.8 6.6 5.2 78 1.6 SSW 6 7 3 4 1026.6 1026.2 0.0
18/10:30pm 9.7 8.0 5.7 76 1.9 S 4 6 2 3 1026.8 1026.4 0.0
18/10:00pm 10.4 9.4 5.8 73 2.1 CALM 0 6 0 3 1026.7 1026.3 0.0
18/09:30pm 10.0 7.5 4.6 69 2.5 SE 7 7 4 4 1026.8 1026.4 0.0
18/09:00pm 14.0 11.3 5.6 57 4.0 SE 9 9 5 5 1026.4 1026.0 0.0
18/08:30pm 15.3 14.0 4.1 47 5.3 CALM 0 0 0 0 1025.8 1025.5 0.0
18/08:00pm 16.7 14.9 3.4 41 6.2 E 2 7 1 4 1025.3 1025.0 0.0

Other Formats:

Comma delimited format used in spreadsheet applications
http://www.bom.gov.au/fwo/IDN60801/IDN60801.95722.axf

JavaScript Object Notation format (JSON) in row-major order
http://www.bom.gov.au/fwo/IDN60801/IDN60801.95722.json